createdAt,value
2023-03-17T06:37:16.718Z,8.60
2023-03-17T07:50:56.396Z,5.67
2023-03-17T09:16:34.466Z,4.20
2023-03-17T09:21:28.963Z,4.30
2023-03-17T09:26:31.638Z,4.23
2023-03-17T09:31:26.109Z,4.17
2023-03-17T09:36:21.645Z,4.60
2023-03-17T09:41:45.273Z,3.87
2023-03-17T09:46:50.270Z,6.67
2023-03-17T09:51:48.066Z,4.13
2023-03-17T09:56:47.867Z,3.90
2023-03-17T10:01:45.039Z,3.93
2023-03-17T10:06:41.664Z,3.77
2023-03-17T10:11:45.232Z,4.50
2023-03-17T10:16:48.562Z,4.47
2023-03-17T10:21:52.063Z,4.70
2023-03-17T10:26:53.814Z,4.43
2023-03-17T10:31:49.056Z,4.20
2023-03-17T10:36:48.969Z,3.87
2023-03-17T10:41:58.483Z,4.40
2023-03-17T10:46:59.640Z,4.57
2023-03-17T10:51:56.617Z,5.97
2023-03-17T10:56:59.200Z,5.03
2023-03-17T11:01:58.053Z,5.60
2023-03-17T11:06:53.714Z,5.07
2023-03-17T11:11:49.631Z,4.77
2023-03-17T11:16:57.621Z,5.20
2023-03-17T11:22:00.406Z,4.20
2023-03-17T11:27:01.686Z,4.00
2023-03-17T11:32:05.669Z,4.53
2023-03-17T11:37:07.396Z,4.70
2023-03-17T11:42:10.484Z,4.90
2023-03-17T11:47:15.223Z,4.80
2023-03-17T11:52:22.227Z,5.20
2023-03-17T11:57:22.275Z,4.77
2023-03-17T12:02:25.258Z,4.23
2023-03-17T12:07:23.952Z,4.80
2023-03-17T12:12:25.487Z,5.30
2023-03-17T12:17:25.835Z,4.80
2023-03-17T12:22:28.757Z,4.67
2023-03-17T12:27:28.366Z,5.10
2023-03-17T12:32:26.423Z,4.97
2023-03-17T12:37:21.751Z,5.50
2023-03-17T12:42:30.751Z,5.60
2023-03-17T12:47:39.243Z,5.40
2023-03-17T12:53:09.825Z,5.80
2023-03-17T12:58:08.257Z,5.47
2023-03-17T13:03:23.979Z,5.38
2023-03-17T13:08:24.272Z,5.40
2023-03-17T13:13:42.085Z,5.53
2023-03-17T13:19:02.097Z,5.05
2023-03-17T13:24:19.889Z,4.50
2023-03-17T13:29:28.892Z,4.90
2023-03-17T13:34:22.684Z,4.90
2023-03-17T13:39:45.390Z,4.95
2023-03-17T13:45:11.554Z,4.57
2023-03-17T13:50:14.291Z,4.60
2023-03-17T13:55:36.675Z,4.90
2023-03-17T14:00:33.518Z,4.35
2023-03-17T14:05:33.220Z,4.88
2023-03-17T14:10:28.676Z,4.53
2023-03-17T14:15:27.806Z,5.20
2023-03-17T14:20:24.636Z,4.50
2023-03-17T14:25:21.780Z,4.72
2023-03-17T14:30:21.082Z,4.47
2023-03-17T14:35:15.258Z,4.20
2023-03-17T14:40:23.540Z,4.50
2023-03-17T14:45:23.618Z,4.40
2023-03-17T14:50:25.381Z,4.18
2023-03-17T14:55:21.025Z,5.00
2023-03-17T15:00:34.063Z,4.47
2023-03-17T15:05:37.529Z,4.57
2023-03-17T15:10:42.814Z,4.50
2023-03-17T15:15:38.828Z,4.47
2023-03-17T15:20:35.550Z,4.95
2023-03-17T15:25:38.485Z,5.35
2023-03-17T15:30:46.239Z,4.68
2023-03-17T15:35:40.957Z,5.93
2023-03-17T15:40:34.635Z,6.07
2023-03-17T15:45:29.652Z,5.85
2023-03-17T15:50:26.533Z,5.30
2023-03-17T15:55:24.472Z,5.90
2023-03-17T16:00:20.217Z,7.35
2023-03-17T16:05:20.776Z,6.55
2023-03-17T16:10:19.692Z,7.30
2023-03-17T16:15:22.843Z,8.77
2023-03-17T16:20:25.060Z,7.13
2023-03-17T16:25:26.300Z,6.27
2023-03-17T16:30:21.968Z,5.77
2023-03-17T16:35:20.835Z,4.90
2023-03-17T16:40:22.718Z,5.67
2023-03-17T16:45:21.816Z,5.93
2023-03-17T16:50:20.985Z,6.00
2023-03-17T16:55:15.157Z,6.63
2023-03-17T17:00:17.126Z,7.47
2023-03-17T17:05:15.796Z,8.10
2023-03-17T17:10:10.978Z,6.20
2023-03-17T17:15:05.056Z,7.53
2023-03-17T17:20:02.205Z,10.37
2023-03-17T17:24:55.786Z,7.70
2023-03-17T17:29:49.261Z,7.50
2023-03-17T17:34:42.918Z,6.07
2023-03-17T17:39:37.961Z,8.10
2023-03-17T17:44:31.643Z,7.40
2023-03-17T17:49:25.526Z,8.03
2023-03-17T17:54:19.088Z,8.67
2023-03-17T17:59:14.741Z,9.50
